Time;durP1;ratioP1;P1;durP2;ratioP2;P2;SDS_P1;SDS_P2;PMS_P1;PMS_P2;Temp;Humidity;BMP_temperature;BMP_pressure;BME280_temperature;BME280_humidity;BME280_pressure;Samples;Min_cycle;Max_cycle;Signal;HPM_P1;HPM_P2
2021/06/06 11:24:36;;;;;;;143.15;9.90;;;;;;;23.13;50.88;99308.03;5083737;27;20443;-80
2021/06/06 11:28:34;;;;;;;29.05;6.47;;;;;;;22.12;57.38;99320.09;5088576;27;20375;-81
2021/06/06 11:31:00;;;;;;;18.33;5.20;;;;;;;21.89;57.53;99322.34;5070734;28;20046;-81
2021/06/06 11:33:46;;;;;;;15.40;5.32;;;;;;;21.68;60.02;99318.22;5071136;28;20068;-80
2021/06/06 11:36:13;;;;;;;13.27;5.68;;;;;;;21.61;62.05;99318.19;5070539;28;20136;-81
2021/06/06 11:38:47;;;;;;;13.32;6.45;;;;;;;21.60;62.21;99304.69;5070408;28;20067;-81
2021/06/06 11:41:22;;;;;;;13.00;5.95;;;;;;;21.66;62.33;99315.06;5053279;28;20218;-82
2021/06/06 11:44:15;;;;;;;12.43;5.30;;;;;;;21.74;62.63;99305.56;5071801;28;20134;-80
2021/06/06 11:46:50;;;;;;;13.50;5.47;;;;;;;22.05;62.21;99308.88;5071403;28;20524;-81
2021/06/06 11:49:26;;;;;;;12.23;5.93;;;;;;;22.52;62.67;99305.13;5070408;28;20029;-81
2021/06/06 11:51:54;;;;;;;8.80;4.97;;;;;;;22.90;60.57;99304.81;5070207;28;20032;-79
2021/06/06 11:54:32;;;;;;;10.18;4.55;;;;;;;23.22;57.95;99302.06;5070630;28;20119;-80
2021/06/06 11:57:06;;;;;;;5.68;4.07;;;;;;;23.64;58.54;99292.03;5070709;28;20085;-81
2021/06/06 11:59:40;;;;;;;13.13;4.95;;;;;;;23.97;59.58;99279.63;5039422;28;20051;-80
2021/06/06 12:02:26;;;;;;;6.82;3.80;;;;;;;23.99;49.78;99263.28;5045747;28;20051;-79
2021/06/06 12:04:57;;;;;;;11.85;3.42;;;;;;;24.08;48.80;99279.59;5069833;28;20638;-79
2021/06/06 12:07:27;;;;;;;7.75;3.08;;;;;;;23.93;48.64;99284.44;5034435;28;20055;-80
2021/06/06 12:09:55;;;;;;;17.48;3.80;;;;;;;23.88;49.76;99301.59;5080768;28;20036;-79
2021/06/06 12:12:29;;;;;;;15.40;3.60;;;;;;;23.94;50.77;99311.16;5084404;28;20121;-78
2021/06/06 12:15:07;;;;;;;13.27;3.60;;;;;;;23.81;49.91;99310.81;5079987;28;20165;-79
2021/06/06 12:17:36;;;;;;;13.02;4.00;;;;;;;23.77;48.68;99321.16;5076993;28;20138;-79
2021/06/06 12:20:06;;;;;;;15.75;3.80;;;;;;;23.34;49.46;99284.13;5064553;28;20559;-79
2021/06/06 12:22:37;;;;;;;18.00;3.13;;;;;;;23.32;48.06;99325.59;5082867;28;20047;-79
2021/06/06 12:25:16;;;;;;;18.65;4.20;;;;;;;23.20;48.73;99341.50;5052478;28;20324;-81
2021/06/06 12:27:48;;;;;;;13.85;3.38;;;;;;;23.04;49.37;99343.88;5078010;28;20063;-79
2021/06/06 12:30:23;;;;;;;30.45;6.32;;;;;;;22.72;49.04;99352.97;5082152;28;20100;-80
2021/06/06 12:33:05;;;;;;;10.20;3.37;;;;;;;22.25;49.42;99346.44;5066239;28;20044;-81
2021/06/06 12:35:35;;;;;;;12.63;3.20;;;;;;;21.96;52.12;99356.59;5063584;28;20294;-79
2021/06/06 12:38:03;;;;;;;8.75;3.00;;;;;;;21.60;52.51;99313.03;5041165;28;20133;-79
2021/06/06 12:40:36;;;;;;;13.38;3.92;;;;;;;21.57;54.76;99323.72;5051126;28;20037;-79
2021/06/06 12:43:02;;;;;;;8.02;3.40;;;;;;;21.55;53.72;99320.53;5050179;28;20178;-79
2021/06/06 12:45:29;;;;;;;24.10;4.32;;;;;;;21.61;54.89;99357.13;5051128;28;20036;-80
2021/06/06 12:48:14;;;;;;;16.52;3.95;;;;;;;21.52;56.41;99353.88;5048613;28;20047;-80
2021/06/06 12:50:43;;;;;;;11.65;4.20;;;;;;;21.44;57.22;99350.25;5049059;28;20039;-81
2021/06/06 12:53:15;;;;;;;6.35;3.95;;;;;;;21.41;57.68;99353.81;5047366;28;20041;-80
2021/06/06 12:55:44;;;;;;;12.48;4.25;;;;;;;21.33;57.94;99361.28;5064657;28;20101;-79
2021/06/06 12:58:10;;;;;;;;;;;;;;;21.39;58.44;99355.38;5064515;28;20626;-79
2021/06/06 13:00:51;;;;;;;8.85;5.45;;;;;;;21.15;58.92;99326.94;5064277;28;21164;-80
2021/06/06 13:03:27;;;;;;;9.02;4.72;;;;;;;21.39;59.86;99360.94;5029309;28;20039;-79
2021/06/06 13:05:56;;;;;;;8.65;4.55;;;;;;;21.41;58.31;99364.13;5049249;28;20138;-80
2021/06/06 13:08:27;;;;;;;11.55;5.10;;;;;;;21.21;58.89;99356.00;5048169;28;20856;-80
2021/06/06 13:11:20;;;;;;;13.68;5.18;;;;;;;21.33;58.21;99377.16;5031516;28;20071;-79
2021/06/06 13:13:51;;;;;;;19.48;10.95;;;;;;;21.03;57.64;99355.03;5048297;28;20072;-79
2021/06/06 13:16:27;;;;;;;26.20;11.88;;;;;;;21.21;58.38;99386.56;5046431;28;20063;-79
2021/06/06 13:19:08;;;;;;;17.10;8.80;;;;;;;20.95;58.40;99353.34;5047223;28;20713;-79
2021/06/06 13:21:43;;;;;;;10.80;4.80;;;;;;;21.21;58.38;99392.13;5047728;28;20040;-81
2021/06/06 13:24:17;;;;;;;10.13;4.28;;;;;;;21.25;57.84;99392.97;5047779;28;20110;-82
2021/06/06 13:26:47;;;;;;;10.52;4.60;;;;;;;21.31;57.76;99390.63;5047032;28;20434;-80
2021/06/06 13:29:43;;;;;;;10.48;4.15;;;;;;;21.22;57.70;99360.34;5046638;28;20044;-79
2021/06/06 13:32:23;;;;;;;7.35;4.28;;;;;;;21.31;57.84;99343.38;5047399;28;20489;-80
2021/06/06 13:34:55;;;;;;;23.08;5.05;;;;;;;21.57;57.16;99364.66;5012579;28;20085;-80
2021/06/06 13:37:22;;;;;;;15.65;5.22;;;;;;;21.78;57.98;99384.28;5044227;28;20045;-79
2021/06/06 13:39:51;;;;;;;9.02;4.70;;;;;;;21.78;57.96;99380.69;5059862;28;20044;-79
2021/06/06 13:42:20;;;;;;;12.27;5.22;;;;;;;21.47;57.72;99335.56;5044991;28;20897;-79
2021/06/06 13:44:51;;;;;;;20.08;5.25;;;;;;;21.72;58.52;99374.72;5039705;28;20151;-81
2021/06/06 13:47:28;;;;;;;10.60;4.95;;;;;;;21.51;60.02;99343.94;5059231;28;20076;-83
2021/06/06 13:49:58;;;;;;;8.73;5.40;;;;;;;21.42;59.69;99333.13;5032799;28;20039;-83
2021/06/06 13:52:25;;;;;;;16.13;6.32;;;;;;;21.18;60.43;99292.03;5052529;28;20041;-84
2021/06/06 13:58:01;;;;;;;23.45;6.75;;;;;;;21.33;60.96;99336.25;4999636;28;20055;-85
2021/06/06 14:00:30;;;;;;;12.75;6.13;;;;;;;21.46;62.40;99361.00;4964287;28;20598;-84
2021/06/06 14:03:01;;;;;;;7.85;5.57;;;;;;;21.25;62.83;99325.44;4989044;28;20045;-84
2021/06/06 14:05:30;;;;;;;11.50;5.18;;;;;;;21.25;61.94;99336.56;4988752;28;20518;-83
2021/06/06 14:08:47;;;;;;;14.90;7.32;;;;;;;21.27;64.15;99351.69;4993707;28;20143;-85
2021/06/06 14:11:26;;;;;;;10.48;5.75;;;;;;;20.97;63.22;99312.09;4991747;28;20042;-83
2021/06/06 14:13:53;;;;;;;10.70;6.90;;;;;;;20.88;63.84;99327.09;4967341;28;20073;-81
2021/06/06 14:16:24;;;;;;;10.23;4.78;;;;;;;20.39;63.02;99278.13;4998999;28;20054;-78
2021/06/06 14:18:52;;;;;;;7.85;3.58;;;;;;;20.62;62.56;99339.13;4984879;28;20123;-79
2021/06/06 14:21:22;;;;;;;6.63;3.75;;;;;;;20.37;63.06;99344.38;4984211;28;20034;-79
2021/06/06 14:23:56;;;;;;;6.32;3.60;;;;;;;20.29;63.85;99330.75;4984250;28;20498;-79
2021/06/06 14:26:26;;;;;;;13.40;4.13;;;;;;;20.26;64.50;99334.28;4967147;28;20048;-81
2021/06/06 14:28:55;;;;;;;6.20;4.25;;;;;;;20.24;65.40;99323.59;4988828;28;20138;-79
2021/06/06 14:31:24;;;;;;;10.77;4.43;;;;;;;20.26;65.25;99323.19;4987543;28;20423;-80
2021/06/06 14:33:54;;;;;;;12.65;5.22;;;;;;;20.13;65.38;99311.53;4985912;28;20060;-81
2021/06/06 14:36:21;;;;;;;13.60;5.50;;;;;;;20.05;64.37;99320.94;4977203;28;20038;-80
2021/06/06 14:38:52;;;;;;;17.98;7.13;;;;;;;19.88;64.74;99314.00;4993376;28;20053;-80
2021/06/06 14:41:27;;;;;;;26.13;8.38;;;;;;;19.54;64.97;99277.03;4983851;28;20048;-80
2021/06/06 14:43:57;;;;;;;11.80;7.00;;;;;;;19.54;63.39;99302.00;4987289;28;20092;-84
2021/06/06 14:46:23;;;;;;;19.90;8.15;;;;;;;19.34;64.23;99307.63;4983813;28;20037;-80
2021/06/06 14:48:49;;;;;;;;;;;;;;;19.21;65.16;99309.00;4968291;28;20049;-78
2021/06/06 14:51:16;;;;;;;13.15;6.57;;;;;;;19.20;66.30;99304.63;4981661;28;19921;-81
2021/06/06 14:53:44;;;;;;;22.73;8.70;;;;;;;19.35;66.34;99305.66;4983246;28;20052;-80
2021/06/06 14:56:11;;;;;;;21.42;7.47;;;;;;;19.56;65.74;99302.41;5009301;28;20049;-78
2021/06/06 14:58:37;;;;;;;19.30;7.75;;;;;;;19.85;64.77;99303.66;5009845;28;20042;-78
2021/06/06 15:01:15;;;;;;;16.58;6.97;;;;;;;20.06;64.83;99280.91;5010699;28;20029;-78
2021/06/06 15:03:42;;;;;;;16.08;7.47;;;;;;;20.34;61.51;99297.94;5020891;28;20058;-77
2021/06/06 15:06:09;;;;;;;14.25;7.18;;;;;;;20.55;60.64;99299.38;5008963;28;20061;-77
2021/06/06 15:08:35;;;;;;;14.30;6.57;;;;;;;20.87;58.95;99296.91;5023660;28;20041;-75
2021/06/06 15:11:02;;;;;;;23.98;7.25;;;;;;;20.95;59.79;99300.56;5009771;28;20108;-82
2021/06/06 15:13:31;;;;;;;17.55;5.25;;;;;;;21.21;59.53;99296.81;5009607;28;20065;-78
2021/06/06 15:15:58;;;;;;;19.38;5.43;;;;;;;21.39;58.90;99295.00;5010061;28;20072;-75
2021/06/06 15:18:26;;;;;;;23.63;5.00;;;;;;;21.75;55.50;99290.44;5022111;28;20125;-76
2021/06/06 15:20:58;;;;;;;29.88;7.53;;;;;;;21.62;55.99;99296.72;5009973;28;20042;-76
2021/06/06 15:23:26;;;;;;;14.13;6.10;;;;;;;21.21;55.30;99282.91;5009709;28;20411;-78
2021/06/06 15:29:36;;;;;;;14.23;4.10;;;;;;;21.33;54.06;99280.63;5058265;22;20076;-82
2021/06/06 15:32:03;;;;;;;22.60;3.95;;;;;;;21.51;53.04;99277.19;5033111;22;20048;-82
2021/06/06 15:34:30;;;;;;;17.35;3.83;;;;;;;21.40;51.73;99245.75;5068250;28;20037;-85
2021/06/06 15:51:38;;;;;;;26.05;4.07;;;;;;;21.65;51.32;99280.06;4899566;23;20056;-83
2021/06/06 15:54:12;;;;;;;13.80;3.70;;;;;;;21.12;51.93;99227.63;4856026;29;20144;-90
2021/06/06 15:56:38;;;;;;;25.55;5.93;;;;;;;21.10;52.19;99272.50;4895644;29;20176;-87
2021/06/06 15:59:05;;;;;;;19.90;4.05;;;;;;;20.73;52.81;99247.59;4889330;29;20124;-83
2021/06/06 16:01:34;;;;;;;12.00;3.72;;;;;;;20.93;52.74;99286.25;4878496;29;20040;-83
2021/06/06 16:04:00;;;;;;;;;;;;;;;20.95;53.74;99300.56;4878992;29;20470;-83
2021/06/06 16:06:28;;;;;;;24.38;3.53;;;;;;;20.95;54.13;99289.44;4894865;29;19924;-83
2021/06/06 16:08:54;;;;;;;;;;;;;;;20.85;53.88;99291.72;4864990;29;20048;-84
2021/06/06 16:11:24;;;;;;;21.55;4.07;;;;;;;20.81;54.49;99287.34;4911991;29;19923;-84
2021/06/06 16:13:50;;;;;;;23.05;4.68;;;;;;;20.56;54.94;99276.78;4879133;29;20048;-84
2021/06/06 16:31:40;;;;;;;27.30;5.47;;;;;;;20.42;56.60;99305.16;4965308;23;20402;-87
2021/06/06 16:34:09;;;;;;;17.83;5.75;;;;;;;20.33;57.24;99299.13;4867680;29;20040;-86
2021/06/06 16:36:35;;;;;;;13.02;4.30;;;;;;;19.97;58.14;99266.53;4882337;29;20044;-83
2021/06/06 16:39:05;;;;;;;14.10;5.10;;;;;;;20.14;58.94;99307.59;4884484;29;20040;-86
2021/06/06 16:41:31;;;;;;;;;;;;;;;20.17;59.08;99307.63;4897597;29;20112;-84
2021/06/06 16:43:57;;;;;;;13.95;4.85;;;;;;;19.99;59.09;99272.50;4899983;29;19922;-84
2021/06/06 16:46:23;;;;;;;16.33;5.60;;;;;;;20.16;59.67;99299.69;4900203;29;20489;-84
2021/06/06 16:51:40;;;;;;;23.92;5.90;;;;;;;19.63;60.15;99227.63;4894626;29;20040;-83
2021/06/06 16:54:06;;;;;;;28.02;6.40;;;;;;;20.15;60.18;99298.88;4819839;29;20033;-84
2021/06/06 16:56:32;;;;;;;11.18;5.30;;;;;;;20.01;60.06;99268.19;4880562;29;20104;-83
2021/06/06 16:58:59;;;;;;;18.73;6.55;;;;;;;20.28;60.39;99306.97;4897183;29;20588;-83
2021/06/06 17:01:27;;;;;;;;;;;;;;;20.29;59.99;99301.03;4865098;29;20135;-83
2021/06/06 17:03:53;;;;;;;21.05;7.82;;;;;;;20.06;60.70;99286.47;4880513;29;19950;-83
2021/06/06 17:06:20;;;;;;;28.20;7.30;;;;;;;19.85;61.17;99265.59;4880088;29;20104;-83
2021/06/06 17:08:47;;;;;;;24.70;7.50;;;;;;;20.11;61.58;99303.59;4879840;29;20076;-82
2021/06/06 17:11:14;;;;;;;17.30;6.15;;;;;;;20.18;61.40;99305.66;4865467;29;20045;-79
2021/06/06 17:13:40;;;;;;;25.00;7.57;;;;;;;20.13;61.48;99306.81;4863976;29;20094;-80
2021/06/06 17:16:08;;;;;;;23.00;5.70;;;;;;;20.10;61.42;99306.75;4896112;29;20052;-79
2021/06/06 17:18:35;;;;;;;10.23;4.70;;;;;;;20.10;61.29;99309.53;4897513;29;20041;-79
2021/06/06 17:24:46;;;;;;;21.50;5.38;;;;;;;19.97;62.75;99313.69;4876128;29;20049;-84
2021/06/06 17:27:37;;;;;;;15.45;5.47;;;;;;;19.90;62.46;99325.50;4869147;29;20514;-82
2021/06/06 17:30:07;;;;;;;18.80;5.00;;;;;;;19.86;62.29;99324.66;5134880;23;20075;-83
2021/06/06 17:32:34;;;;;;;19.77;6.20;;;;;;;19.58;63.00;99286.19;4859746;29;20060;-84
2021/06/06 17:35:01;;;;;;;10.93;5.35;;;;;;;19.48;63.68;99293.19;4860028;29;20064;-83
2021/06/06 17:37:31;;;;;;;16.35;5.45;;;;;;;19.46;63.56;99307.41;4859798;29;20087;-82
2021/06/06 17:39:58;;;;;;;28.30;5.90;;;;;;;19.60;63.76;99319.88;4886354;29;20049;-83
2021/06/06 17:42:24;;;;;;;16.67;5.93;;;;;;;19.57;63.81;99317.84;4895363;29;20072;-82
2021/06/06 17:44:50;;;;;;;38.33;6.77;;;;;;;19.30;63.72;99275.47;4875852;29;20498;-83
2021/06/06 17:47:21;;;;;;;19.77;6.78;;;;;;;19.44;64.30;99307.00;4874572;29;20068;-83
2021/06/06 17:49:50;;;;;;;17.02;7.38;;;;;;;19.18;64.42;99285.59;4876023;29;20124;-82
2021/06/06 17:52:17;;;;;;;21.60;6.78;;;;;;;19.00;64.63;99256.78;4889864;29;20041;-82
2021/06/06 17:54:44;;;;;;;23.47;6.23;;;;;;;18.99;64.79;99253.22;4875002;29;20426;-82
2021/06/06 17:57:13;;;;;;;26.38;6.97;;;;;;;19.22;64.88;99296.75;4890588;29;20355;-83
2021/06/06 17:59:43;;;;;;;17.10;7.07;;;;;;;19.18;65.30;99305.00;4876409;29;20628;-82
2021/06/06 18:02:09;;;;;;;9.70;5.45;;;;;;;19.15;65.78;99308.50;4876084;29;20040;-82
2021/06/06 18:04:38;;;;;;;13.02;5.57;;;;;;;18.96;66.48;99292.75;4888596;29;20036;-84
2021/06/06 18:07:06;;;;;;;10.30;5.57;;;;;;;18.64;66.72;99253.41;4873164;29;20411;-82
2021/06/06 18:09:33;;;;;;;19.10;6.10;;;;;;;18.63;67.10;99260.09;4873205;29;20089;-84
2021/06/06 18:11:59;;;;;;;17.67;6.27;;;;;;;18.59;67.14;99266.75;4873224;29;20037;-82
2021/06/06 18:14:29;;;;;;;9.63;5.80;;;;;;;18.82;67.50;99309.13;4873976;29;20092;-82
2021/06/06 18:16:57;;;;;;;13.27;6.65;;;;;;;18.50;67.76;99259.47;4877393;29;20032;-82
2021/06/06 18:19:25;;;;;;;14.00;6.78;;;;;;;18.41;67.97;99263.63;4875845;29;20041;-82
2021/06/06 18:21:55;;;;;;;17.58;7.43;;;;;;;18.67;68.47;99312.75;4887408;29;20104;-82
2021/06/06 18:36:34;;;;;;;15.90;6.72;;;;;;;17.94;70.03;99253.63;4898796;24;20054;-77
2021/06/06 18:39:04;;;;;;;11.05;6.80;;;;;;;18.30;70.36;99318.78;4678833;30;20041;-76
2021/06/06 18:41:32;;;;;;;11.77;6.30;;;;;;;18.33;70.51;99320.03;4677581;30;20417;-77
2021/06/06 18:44:00;;;;;;;16.55;6.93;;;;;;;18.26;70.63;99315.16;4692379;30;20091;-77
2021/06/06 18:46:30;;;;;;;12.60;7.60;;;;;;;18.17;71.16;99323.66;4691873;30;20042;-81
2021/06/06 18:49:06;;;;;;;15.68;7.18;;;;;;;17.96;71.42;99292.78;4665441;30;20072;-78
2021/06/06 18:51:35;;;;;;;17.67;7.93;;;;;;;18.05;71.53;99308.00;4690530;30;20136;-85
2021/06/06 18:54:05;;;;;;;17.23;8.38;;;;;;;18.01;71.81;99304.38;4690562;30;20045;-82
2021/06/06 18:56:59;;;;;;;11.18;7.93;;;;;;;18.10;71.76;99319.94;4690264;30;20069;-85
2021/06/06 18:59:26;;;;;;;20.13;8.40;;;;;;;17.99;71.83;99315.00;4689955;30;20425;-79
2021/06/06 19:04:45;;;;;;;13.90;8.27;;;;;;;17.90;72.10;99299.78;4689998;30;19973;-90
2021/06/06 19:07:14;;;;;;;22.70;9.50;;;;;;;17.80;72.16;99292.84;4664570;30;20045;-92
2021/06/06 19:09:40;;;;;;;15.48;8.88;;;;;;;17.64;72.23;99264.41;4678372;30;20111;-92
2021/06/06 19:12:07;;;;;;;11.40;9.10;;;;;;;17.60;72.52;99258.81;4659823;30;20057;-92
